sensor_id;sensor_type;location;lat;lon;timestamp;temperature;humidity
10062;DHT22;5070;52.382;5.270;2022-07-30T00:01:31;25.20;74.60
10062;DHT22;5070;52.382;5.270;2022-07-30T00:04:03;25.10;74.50
10062;DHT22;5070;52.382;5.270;2022-07-30T00:06:31;25.10;74.60
10062;DHT22;5070;52.382;5.270;2022-07-30T00:09:04;25.20;74.70
10062;DHT22;5070;52.382;5.270;2022-07-30T00:11:32;25.20;74.60
10062;DHT22;5070;52.382;5.270;2022-07-30T00:14:00;25.10;74.60
10062;DHT22;5070;52.382;5.270;2022-07-30T00:16:28;25.10;74.70
10062;DHT22;5070;52.382;5.270;2022-07-30T00:18:57;25.10;74.70
10062;DHT22;5070;52.382;5.270;2022-07-30T00:21:28;25.10;74.60
10062;DHT22;5070;52.382;5.270;2022-07-30T00:24:05;25.10;74.30
10062;DHT22;5070;52.382;5.270;2022-07-30T00:26:34;25.10;74.10
10062;DHT22;5070;52.382;5.270;2022-07-30T00:29:03;25.10;73.70
10062;DHT22;5070;52.382;5.270;2022-07-30T00:31:34;25.10;73.90
10062;DHT22;5070;52.382;5.270;2022-07-30T00:34:08;25.10;73.70
10062;DHT22;5070;52.382;5.270;2022-07-30T00:36:41;25.00;74.10
10062;DHT22;5070;52.382;5.270;2022-07-30T00:39:10;25.00;73.90
10062;DHT22;5070;52.382;5.270;2022-07-30T00:41:53;25.00;73.80
10062;DHT22;5070;52.382;5.270;2022-07-30T00:44:23;25.00;74.00
10062;DHT22;5070;52.382;5.270;2022-07-30T00:46:54;25.00;73.90
10062;DHT22;5070;52.382;5.270;2022-07-30T00:49:23;25.00;74.20
10062;DHT22;5070;52.382;5.270;2022-07-30T00:51:53;25.00;74.20
10062;DHT22;5070;52.382;5.270;2022-07-30T00:54:21;25.00;74.00
10062;DHT22;5070;52.382;5.270;2022-07-30T00:56:49;25.00;73.80
10062;DHT22;5070;52.382;5.270;2022-07-30T00:59:17;25.00;73.90
10062;DHT22;5070;52.382;5.270;2022-07-30T01:01:46;24.90;74.10
10062;DHT22;5070;52.382;5.270;2022-07-30T01:04:22;24.90;74.00
10062;DHT22;5070;52.382;5.270;2022-07-30T01:06:54;24.90;74.30
10062;DHT22;5070;52.382;5.270;2022-07-30T01:09:22;24.90;74.50
10062;DHT22;5070;52.382;5.270;2022-07-30T01:11:53;24.90;74.40
10062;DHT22;5070;52.382;5.270;2022-07-30T01:14:22;24.90;74.50
10062;DHT22;5070;52.382;5.270;2022-07-30T01:16:50;24.90;74.60
10062;DHT22;5070;52.382;5.270;2022-07-30T01:19:21;24.90;74.60
10062;DHT22;5070;52.382;5.270;2022-07-30T01:22:14;24.90;74.70
10062;DHT22;5070;52.382;5.270;2022-07-30T01:24:49;24.90;74.80
10062;DHT22;5070;52.382;5.270;2022-07-30T01:27:23;24.90;74.80
10062;DHT22;5070;52.382;5.270;2022-07-30T01:29:53;24.90;74.80
10062;DHT22;5070;52.382;5.270;2022-07-30T01:32:23;24.90;74.90
10062;DHT22;5070;52.382;5.270;2022-07-30T01:34:56;24.90;74.70
10062;DHT22;5070;52.382;5.270;2022-07-30T01:37:26;24.90;74.80
10062;DHT22;5070;52.382;5.270;2022-07-30T01:39:55;24.90;74.70
10062;DHT22;5070;52.382;5.270;2022-07-30T01:42:26;24.90;74.80
10062;DHT22;5070;52.382;5.270;2022-07-30T01:44:56;24.80;74.60
10062;DHT22;5070;52.382;5.270;2022-07-30T01:47:29;24.80;74.50
10062;DHT22;5070;52.382;5.270;2022-07-30T01:50:04;24.80;74.50
10062;DHT22;5070;52.382;5.270;2022-07-30T01:52:37;24.80;74.50
10062;DHT22;5070;52.382;5.270;2022-07-30T01:55:07;24.80;74.70
10062;DHT22;5070;52.382;5.270;2022-07-30T01:57:46;24.80;74.60
10062;DHT22;5070;52.382;5.270;2022-07-30T02:00:16;24.80;74.50
10062;DHT22;5070;52.382;5.270;2022-07-30T02:02:44;24.80;74.60
10062;DHT22;5070;52.382;5.270;2022-07-30T02:05:13;24.80;74.20
10062;DHT22;5070;52.382;5.270;2022-07-30T02:07:48;24.80;74.40
10062;DHT22;5070;52.382;5.270;2022-07-30T02:10:26;24.80;74.30
10062;DHT22;5070;52.382;5.270;2022-07-30T02:13:02;24.80;74.30
10062;DHT22;5070;52.382;5.270;2022-07-30T02:15:33;24.80;74.10
10062;DHT22;5070;52.382;5.270;2022-07-30T02:18:09;24.80;74.20
10062;DHT22;5070;52.382;5.270;2022-07-30T02:20:44;24.80;74.20
10062;DHT22;5070;52.382;5.270;2022-07-30T02:23:16;24.70;74.10
10062;DHT22;5070;52.382;5.270;2022-07-30T02:25:49;24.80;74.10
10062;DHT22;5070;52.382;5.270;2022-07-30T02:28:33;24.80;73.80
10062;DHT22;5070;52.382;5.270;2022-07-30T02:31:05;24.70;73.70
10062;DHT22;5070;52.382;5.270;2022-07-30T02:33:44;24.70;73.50
10062;DHT22;5070;52.382;5.270;2022-07-30T02:36:16;24.70;73.50
10062;DHT22;5070;52.382;5.270;2022-07-30T02:38:48;24.70;74.40
10062;DHT22;5070;52.382;5.270;2022-07-30T02:41:19;24.70;73.60
10062;DHT22;5070;52.382;5.270;2022-07-30T02:43:51;24.70;73.60
10062;DHT22;5070;52.382;5.270;2022-07-30T02:46:21;24.70;73.50
10062;DHT22;5070;52.382;5.270;2022-07-30T02:49:16;24.70;73.40
10062;DHT22;5070;52.382;5.270;2022-07-30T02:51:47;24.70;73.30
10062;DHT22;5070;52.382;5.270;2022-07-30T02:54:18;24.70;74.00
10062;DHT22;5070;52.382;5.270;2022-07-30T02:56:48;24.70;73.50
10062;DHT22;5070;52.382;5.270;2022-07-30T02:59:27;24.70;73.20
10062;DHT22;5070;52.382;5.270;2022-07-30T03:01:57;24.60;73.20
10062;DHT22;5070;52.382;5.270;2022-07-30T03:04:27;24.60;73.20
10062;DHT22;5070;52.382;5.270;2022-07-30T03:06:57;24.60;73.00
10062;DHT22;5070;52.382;5.270;2022-07-30T03:09:38;24.60;73.10
10062;DHT22;5070;52.382;5.270;2022-07-30T03:12:20;24.60;73.70
10062;DHT22;5070;52.382;5.270;2022-07-30T03:14:54;24.60;73.10
10062;DHT22;5070;52.382;5.270;2022-07-30T03:17:24;24.60;72.90
10062;DHT22;5070;52.382;5.270;2022-07-30T03:19:54;24.60;73.20
10062;DHT22;5070;52.382;5.270;2022-07-30T03:22:24;24.60;73.00
10062;DHT22;5070;52.382;5.270;2022-07-30T03:25:00;24.60;73.20
10062;DHT22;5070;52.382;5.270;2022-07-30T03:27:29;24.60;73.20
10062;DHT22;5070;52.382;5.270;2022-07-30T03:30:01;24.60;73.00
10062;DHT22;5070;52.382;5.270;2022-07-30T03:32:33;24.50;73.30
10062;DHT22;5070;52.382;5.270;2022-07-30T03:35:02;24.50;73.30
10062;DHT22;5070;52.382;5.270;2022-07-30T03:37:39;24.50;72.90
10062;DHT22;5070;52.382;5.270;2022-07-30T03:40:07;24.50;73.00
10062;DHT22;5070;52.382;5.270;2022-07-30T03:42:36;24.50;73.00
10062;DHT22;5070;52.382;5.270;2022-07-30T03:45:10;24.50;73.00
10062;DHT22;5070;52.382;5.270;2022-07-30T03:47:40;24.50;73.20
10062;DHT22;5070;52.382;5.270;2022-07-30T03:50:15;24.50;73.00
10062;DHT22;5070;52.382;5.270;2022-07-30T03:52:47;24.50;73.10
10062;DHT22;5070;52.382;5.270;2022-07-30T03:55:16;24.50;73.10
10062;DHT22;5070;52.382;5.270;2022-07-30T03:57:47;24.50;73.00
10062;DHT22;5070;52.382;5.270;2022-07-30T04:00:27;24.50;73.10
10062;DHT22;5070;52.382;5.270;2022-07-30T04:02:55;24.50;73.00
10062;DHT22;5070;52.382;5.270;2022-07-30T04:05:30;24.50;72.90
10062;DHT22;5070;52.382;5.270;2022-07-30T04:08:07;24.50;73.80
10062;DHT22;5070;52.382;5.270;2022-07-30T04:10:36;24.50;72.90
10062;DHT22;5070;52.382;5.270;2022-07-30T04:13:04;24.50;72.90
10062;DHT22;5070;52.382;5.270;2022-07-30T04:15:57;24.40;72.70
10062;DHT22;5070;52.382;5.270;2022-07-30T04:18:50;24.40;72.50
10062;DHT22;5070;52.382;5.270;2022-07-30T04:21:23;24.40;72.70
10062;DHT22;5070;52.382;5.270;2022-07-30T04:23:54;24.40;72.60
10062;DHT22;5070;52.382;5.270;2022-07-30T04:26:35;24.40;72.50
10062;DHT22;5070;52.382;5.270;2022-07-30T04:29:08;24.40;72.70
10062;DHT22;5070;52.382;5.270;2022-07-30T04:31:45;24.40;72.60
10062;DHT22;5070;52.382;5.270;2022-07-30T04:34:46;24.40;72.60
10062;DHT22;5070;52.382;5.270;2022-07-30T04:37:16;24.40;72.60
10062;DHT22;5070;52.382;5.270;2022-07-30T04:39:44;24.40;72.70
10062;DHT22;5070;52.382;5.270;2022-07-30T04:42:16;24.30;73.40
10062;DHT22;5070;52.382;5.270;2022-07-30T04:44:51;24.30;72.70
10062;DHT22;5070;52.382;5.270;2022-07-30T04:47:29;24.30;72.50
10062;DHT22;5070;52.382;5.270;2022-07-30T04:50:20;24.30;72.50
10062;DHT22;5070;52.382;5.270;2022-07-30T04:52:50;24.30;72.70
10062;DHT22;5070;52.382;5.270;2022-07-30T04:55:25;24.30;72.40
10062;DHT22;5070;52.382;5.270;2022-07-30T04:57:54;24.30;72.50
10062;DHT22;5070;52.382;5.270;2022-07-30T05:00:23;24.30;72.70
10062;DHT22;5070;52.382;5.270;2022-07-30T05:02:54;24.30;72.70
10062;DHT22;5070;52.382;5.270;2022-07-30T05:05:23;24.30;72.70
10062;DHT22;5070;52.382;5.270;2022-07-30T05:07:55;24.30;72.60
10062;DHT22;5070;52.382;5.270;2022-07-30T05:10:23;24.30;72.70
10062;DHT22;5070;52.382;5.270;2022-07-30T05:12:52;24.30;72.70
10062;DHT22;5070;52.382;5.270;2022-07-30T05:15:21;24.30;72.70
10062;DHT22;5070;52.382;5.270;2022-07-30T05:18:12;24.30;72.90
10062;DHT22;5070;52.382;5.270;2022-07-30T05:20:43;24.30;72.70
10062;DHT22;5070;52.382;5.270;2022-07-30T05:23:40;24.20;72.70
10062;DHT22;5070;52.382;5.270;2022-07-30T05:26:36;24.20;72.70
10062;DHT22;5070;52.382;5.270;2022-07-30T05:29:06;24.20;72.80
10062;DHT22;5070;52.382;5.270;2022-07-30T05:31:50;24.20;72.50
10062;DHT22;5070;52.382;5.270;2022-07-30T05:34:20;24.20;72.40
10062;DHT22;5070;52.382;5.270;2022-07-30T05:36:48;24.20;72.40
10062;DHT22;5070;52.382;5.270;2022-07-30T05:39:16;24.10;72.40
10062;DHT22;5070;52.382;5.270;2022-07-30T05:42:12;24.10;72.30
10062;DHT22;5070;52.382;5.270;2022-07-30T05:44:50;24.20;72.40
10062;DHT22;5070;52.382;5.270;2022-07-30T05:47:19;24.20;72.10
10062;DHT22;5070;52.382;5.270;2022-07-30T05:49:50;24.10;72.00
10062;DHT22;5070;52.382;5.270;2022-07-30T05:52:18;24.10;72.10
10062;DHT22;5070;52.382;5.270;2022-07-30T05:54:46;24.10;72.30
10062;DHT22;5070;52.382;5.270;2022-07-30T05:57:36;24.10;72.20
10062;DHT22;5070;52.382;5.270;2022-07-30T06:00:05;24.10;72.00
10062;DHT22;5070;52.382;5.270;2022-07-30T06:02:42;24.10;71.90
10062;DHT22;5070;52.382;5.270;2022-07-30T06:05:27;24.10;71.80
10062;DHT22;5070;52.382;5.270;2022-07-30T06:07:58;24.10;71.90
10062;DHT22;5070;52.382;5.270;2022-07-30T06:10:28;24.10;71.90
10062;DHT22;5070;52.382;5.270;2022-07-30T06:12:57;24.10;71.90
10062;DHT22;5070;52.382;5.270;2022-07-30T06:15:26;24.10;72.20
10062;DHT22;5070;52.382;5.270;2022-07-30T06:17:56;24.10;72.40
10062;DHT22;5070;52.382;5.270;2022-07-30T06:20:49;24.00;72.20
10062;DHT22;5070;52.382;5.270;2022-07-30T06:23:46;24.10;72.20
10062;DHT22;5070;52.382;5.270;2022-07-30T06:26:21;24.10;71.70
10062;DHT22;5070;52.382;5.270;2022-07-30T06:28:49;24.00;71.60
10062;DHT22;5070;52.382;5.270;2022-07-30T06:31:28;24.00;71.60
10062;DHT22;5070;52.382;5.270;2022-07-30T06:33:56;24.00;71.60
10062;DHT22;5070;52.382;5.270;2022-07-30T06:36:28;24.00;71.30
10062;DHT22;5070;52.382;5.270;2022-07-30T06:39:00;24.00;71.00
10062;DHT22;5070;52.382;5.270;2022-07-30T06:41:48;24.00;71.00
10062;DHT22;5070;52.382;5.270;2022-07-30T06:44:17;24.00;70.90
10062;DHT22;5070;52.382;5.270;2022-07-30T06:47:12;24.00;71.30
10062;DHT22;5070;52.382;5.270;2022-07-30T06:49:40;24.00;70.60
10062;DHT22;5070;52.382;5.270;2022-07-30T06:52:11;24.00;70.30
10062;DHT22;5070;52.382;5.270;2022-07-30T06:54:48;23.90;70.10
10062;DHT22;5070;52.382;5.270;2022-07-30T06:57:23;23.90;69.50
10062;DHT22;5070;52.382;5.270;2022-07-30T06:59:52;23.90;69.80
10062;DHT22;5070;52.382;5.270;2022-07-30T07:02:32;23.90;69.30
10062;DHT22;5070;52.382;5.270;2022-07-30T07:05:13;23.90;69.40
10062;DHT22;5070;52.382;5.270;2022-07-30T07:07:46;23.90;69.10
10062;DHT22;5070;52.382;5.270;2022-07-30T07:10:26;23.90;69.10
10062;DHT22;5070;52.382;5.270;2022-07-30T07:13:08;23.80;69.50
10062;DHT22;5070;52.382;5.270;2022-07-30T07:15:36;23.80;69.90
10062;DHT22;5070;52.382;5.270;2022-07-30T07:18:08;23.80;69.90
10062;DHT22;5070;52.382;5.270;2022-07-30T07:20:40;23.80;69.90
10062;DHT22;5070;52.382;5.270;2022-07-30T07:23:13;23.80;70.10
10062;DHT22;5070;52.382;5.270;2022-07-30T07:25:46;23.80;70.00
10062;DHT22;5070;52.382;5.270;2022-07-30T07:28:14;23.80;69.90
10062;DHT22;5070;52.382;5.270;2022-07-30T07:30:43;23.80;69.90
10062;DHT22;5070;52.382;5.270;2022-07-30T07:33:15;23.80;70.20
10062;DHT22;5070;52.382;5.270;2022-07-30T07:35:45;23.80;70.00
10062;DHT22;5070;52.382;5.270;2022-07-30T07:38:25;23.80;69.70
10062;DHT22;5070;52.382;5.270;2022-07-30T07:40:54;23.80;69.60
10062;DHT22;5070;52.382;5.270;2022-07-30T07:43:23;23.80;69.40
10062;DHT22;5070;52.382;5.270;2022-07-30T07:45:54;23.80;69.30
10062;DHT22;5070;52.382;5.270;2022-07-30T07:48:25;23.80;69.70
10062;DHT22;5070;52.382;5.270;2022-07-30T07:50:58;23.80;69.90
10062;DHT22;5070;52.382;5.270;2022-07-30T07:53:31;23.80;69.80
10062;DHT22;5070;52.382;5.270;2022-07-30T07:55:59;23.80;69.80
10062;DHT22;5070;52.382;5.270;2022-07-30T07:58:27;23.80;69.60
10062;DHT22;5070;52.382;5.270;2022-07-30T08:00:59;23.90;69.50
10062;DHT22;5070;52.382;5.270;2022-07-30T08:03:50;23.80;69.60
10062;DHT22;5070;52.382;5.270;2022-07-30T08:06:37;23.80;69.30
10062;DHT22;5070;52.382;5.270;2022-07-30T08:09:24;23.80;69.60
10062;DHT22;5070;52.382;5.270;2022-07-30T08:12:15;23.80;70.30
10062;DHT22;5070;52.382;5.270;2022-07-30T08:14:58;23.90;70.10
10062;DHT22;5070;52.382;5.270;2022-07-30T08:17:46;23.90;69.50
10062;DHT22;5070;52.382;5.270;2022-07-30T08:20:19;23.90;69.30
10062;DHT22;5070;52.382;5.270;2022-07-30T08:22:48;23.80;69.20
10062;DHT22;5070;52.382;5.270;2022-07-30T08:25:17;23.80;69.60
10062;DHT22;5070;52.382;5.270;2022-07-30T08:27:51;23.80;69.70
10062;DHT22;5070;52.382;5.270;2022-07-30T08:30:21;23.80;70.50
10062;DHT22;5070;52.382;5.270;2022-07-30T08:32:50;23.90;71.60
10062;DHT22;5070;52.382;5.270;2022-07-30T08:35:21;23.80;71.40
10062;DHT22;5070;52.382;5.270;2022-07-30T08:37:52;23.90;72.60
10062;DHT22;5070;52.382;5.270;2022-07-30T08:40:26;23.90;73.00
10062;DHT22;5070;52.382;5.270;2022-07-30T08:43:02;23.90;73.30
10062;DHT22;5070;52.382;5.270;2022-07-30T08:45:31;23.90;73.40
10062;DHT22;5070;52.382;5.270;2022-07-30T08:48:20;23.90;73.60
10062;DHT22;5070;52.382;5.270;2022-07-30T08:50:49;23.90;73.50
10062;DHT22;5070;52.382;5.270;2022-07-30T08:53:33;23.90;73.60
10062;DHT22;5070;52.382;5.270;2022-07-30T08:56:06;23.90;73.50
10062;DHT22;5070;52.382;5.270;2022-07-30T08:58:35;23.90;73.30
10062;DHT22;5070;52.382;5.270;2022-07-30T09:01:04;24.00;72.90
10062;DHT22;5070;52.382;5.270;2022-07-30T09:03:39;24.00;72.60
10062;DHT22;5070;52.382;5.270;2022-07-30T09:06:10;24.00;73.40
10062;DHT22;5070;52.382;5.270;2022-07-30T09:08:40;24.00;74.40
10062;DHT22;5070;52.382;5.270;2022-07-30T09:11:11;24.00;74.30
10062;DHT22;5070;52.382;5.270;2022-07-30T09:13:41;24.00;74.30
10062;DHT22;5070;52.382;5.270;2022-07-30T09:16:19;24.00;74.60
10062;DHT22;5070;52.382;5.270;2022-07-30T09:18:48;24.00;75.10
10062;DHT22;5070;52.382;5.270;2022-07-30T09:21:18;24.00;74.70
10062;DHT22;5070;52.382;5.270;2022-07-30T09:23:55;24.00;74.40
10062;DHT22;5070;52.382;5.270;2022-07-30T09:26:56;24.00;73.70
10062;DHT22;5070;52.382;5.270;2022-07-30T09:29:47;24.00;74.00
10062;DHT22;5070;52.382;5.270;2022-07-30T09:32:53;24.10;74.20
10062;DHT22;5070;52.382;5.270;2022-07-30T09:35:40;24.00;73.90
10062;DHT22;5070;52.382;5.270;2022-07-30T09:38:09;24.00;73.10
10062;DHT22;5070;52.382;5.270;2022-07-30T09:40:49;24.10;72.90
10062;DHT22;5070;52.382;5.270;2022-07-30T09:43:49;24.10;73.40
10062;DHT22;5070;52.382;5.270;2022-07-30T09:46:40;24.10;73.00
10062;DHT22;5070;52.382;5.270;2022-07-30T09:49:13;24.10;73.00
10062;DHT22;5070;52.382;5.270;2022-07-30T09:51:42;24.10;73.10
10062;DHT22;5070;52.382;5.270;2022-07-30T09:54:48;24.10;73.30
10062;DHT22;5070;52.382;5.270;2022-07-30T09:57:22;24.10;72.00
10062;DHT22;5070;52.382;5.270;2022-07-30T10:00:20;24.10;72.00
10062;DHT22;5070;52.382;5.270;2022-07-30T10:03:14;24.10;72.50
10062;DHT22;5070;52.382;5.270;2022-07-30T10:06:38;24.10;72.10
10062;DHT22;5070;52.382;5.270;2022-07-30T10:09:29;24.10;72.10
10062;DHT22;5070;52.382;5.270;2022-07-30T10:11:59;24.10;72.30
10062;DHT22;5070;52.382;5.270;2022-07-30T10:14:34;24.10;71.80
10062;DHT22;5070;52.382;5.270;2022-07-30T10:17:12;24.10;72.20
10062;DHT22;5070;52.382;5.270;2022-07-30T10:19:51;24.10;71.90
10062;DHT22;5070;52.382;5.270;2022-07-30T10:22:38;24.10;71.80
10062;DHT22;5070;52.382;5.270;2022-07-30T10:25:26;24.10;72.60
10062;DHT22;5070;52.382;5.270;2022-07-30T10:28:29;24.10;72.70
10062;DHT22;5070;52.382;5.270;2022-07-30T10:31:04;24.20;72.80
10062;DHT22;5070;52.382;5.270;2022-07-30T10:33:56;24.20;73.00
10062;DHT22;5070;52.382;5.270;2022-07-30T10:36:25;24.20;73.00
10062;DHT22;5070;52.382;5.270;2022-07-30T10:38:54;24.20;72.80
10062;DHT22;5070;52.382;5.270;2022-07-30T10:41:33;24.20;72.80
10062;DHT22;5070;52.382;5.270;2022-07-30T10:44:51;24.20;73.00
10062;DHT22;5070;52.382;5.270;2022-07-30T10:47:22;24.30;72.70
10062;DHT22;5070;52.382;5.270;2022-07-30T10:50:07;24.20;72.50
10062;DHT22;5070;52.382;5.270;2022-07-30T10:52:55;24.20;72.30
10062;DHT22;5070;52.382;5.270;2022-07-30T10:55:25;24.30;72.00
10062;DHT22;5070;52.382;5.270;2022-07-30T10:58:06;24.30;71.80
10062;DHT22;5070;52.382;5.270;2022-07-30T11:00:35;24.30;71.60
10062;DHT22;5070;52.382;5.270;2022-07-30T11:03:25;24.30;71.40
10062;DHT22;5070;52.382;5.270;2022-07-30T11:06:26;24.30;71.00
10062;DHT22;5070;52.382;5.270;2022-07-30T11:08:57;24.30;70.90
10062;DHT22;5070;52.382;5.270;2022-07-30T11:11:44;24.30;71.10
10062;DHT22;5070;52.382;5.270;2022-07-30T11:14:54;24.30;71.00
10062;DHT22;5070;52.382;5.270;2022-07-30T11:17:24;24.40;71.00
10062;DHT22;5070;52.382;5.270;2022-07-30T11:20:11;24.40;71.00
10062;DHT22;5070;52.382;5.270;2022-07-30T11:22:41;24.40;71.00
10062;DHT22;5070;52.382;5.270;2022-07-30T11:25:39;24.40;70.90
10062;DHT22;5070;52.382;5.270;2022-07-30T11:28:37;24.40;70.60
10062;DHT22;5070;52.382;5.270;2022-07-30T11:31:30;24.40;70.10
10062;DHT22;5070;52.382;5.270;2022-07-30T11:34:26;24.40;69.60
10062;DHT22;5070;52.382;5.270;2022-07-30T11:37:14;24.40;69.70
10062;DHT22;5070;52.382;5.270;2022-07-30T11:40:10;24.40;69.90
10062;DHT22;5070;52.382;5.270;2022-07-30T11:42:40;24.40;69.90
10062;DHT22;5070;52.382;5.270;2022-07-30T11:45:22;24.50;70.00
10062;DHT22;5070;52.382;5.270;2022-07-30T11:47:55;24.50;70.20
10062;DHT22;5070;52.382;5.270;2022-07-30T11:50:26;24.50;70.20
10062;DHT22;5070;52.382;5.270;2022-07-30T11:53:00;24.50;69.90
10062;DHT22;5070;52.382;5.270;2022-07-30T11:55:31;24.50;69.70
10062;DHT22;5070;52.382;5.270;2022-07-30T11:58:05;24.50;69.50
10062;DHT22;5070;52.382;5.270;2022-07-30T12:00:36;24.50;69.20
10062;DHT22;5070;52.382;5.270;2022-07-30T12:03:11;24.50;69.10
10062;DHT22;5070;52.382;5.270;2022-07-30T12:05:43;24.50;69.00
10062;DHT22;5070;52.382;5.270;2022-07-30T12:08:18;24.60;68.80
10062;DHT22;5070;52.382;5.270;2022-07-30T12:11:03;24.60;68.90
10062;DHT22;5070;52.382;5.270;2022-07-30T12:13:31;24.60;68.70
10062;DHT22;5070;52.382;5.270;2022-07-30T12:16:12;24.60;68.60
10062;DHT22;5070;52.382;5.270;2022-07-30T12:18:40;24.60;68.30
10062;DHT22;5070;52.382;5.270;2022-07-30T12:21:09;24.60;68.30
10062;DHT22;5070;52.382;5.270;2022-07-30T12:23:39;24.60;68.40
10062;DHT22;5070;52.382;5.270;2022-07-30T12:26:19;24.60;68.30
10062;DHT22;5070;52.382;5.270;2022-07-30T12:28:48;24.60;68.10
10062;DHT22;5070;52.382;5.270;2022-07-30T12:31:16;24.70;67.90
10062;DHT22;5070;52.382;5.270;2022-07-30T12:33:45;24.70;67.60
10062;DHT22;5070;52.382;5.270;2022-07-30T12:36:23;24.70;67.70
10062;DHT22;5070;52.382;5.270;2022-07-30T12:38:51;24.70;68.00
10062;DHT22;5070;52.382;5.270;2022-07-30T12:41:21;24.70;67.80
10062;DHT22;5070;52.382;5.270;2022-07-30T12:43:51;24.70;67.80
10062;DHT22;5070;52.382;5.270;2022-07-30T12:46:22;24.70;67.80
10062;DHT22;5070;52.382;5.270;2022-07-30T12:48:52;24.70;68.00
10062;DHT22;5070;52.382;5.270;2022-07-30T12:51:22;24.70;68.40
10062;DHT22;5070;52.382;5.270;2022-07-30T12:53:51;24.80;68.70
10062;DHT22;5070;52.382;5.270;2022-07-30T12:56:24;24.80;68.70
10062;DHT22;5070;52.382;5.270;2022-07-30T12:58:54;24.80;68.30
10062;DHT22;5070;52.382;5.270;2022-07-30T13:01:40;24.80;68.50
10062;DHT22;5070;52.382;5.270;2022-07-30T13:04:09;24.80;68.40
10062;DHT22;5070;52.382;5.270;2022-07-30T13:06:38;24.80;68.10
10062;DHT22;5070;52.382;5.270;2022-07-30T13:09:16;24.90;67.90
10062;DHT22;5070;52.382;5.270;2022-07-30T13:11:47;24.90;67.70
10062;DHT22;5070;52.382;5.270;2022-07-30T13:14:18;24.90;67.50
10062;DHT22;5070;52.382;5.270;2022-07-30T13:16:53;24.90;67.50
10062;DHT22;5070;52.382;5.270;2022-07-30T13:19:23;24.90;67.40
10062;DHT22;5070;52.382;5.270;2022-07-30T13:21:51;25.00;67.40
10062;DHT22;5070;52.382;5.270;2022-07-30T13:24:19;24.90;67.40
10062;DHT22;5070;52.382;5.270;2022-07-30T13:26:48;24.90;67.30
10062;DHT22;5070;52.382;5.270;2022-07-30T13:29:17;25.00;67.60
10062;DHT22;5070;52.382;5.270;2022-07-30T13:31:44;25.00;67.20
10062;DHT22;5070;52.382;5.270;2022-07-30T13:34:12;25.00;67.30
10062;DHT22;5070;52.382;5.270;2022-07-30T13:36:40;25.00;67.50
10062;DHT22;5070;52.382;5.270;2022-07-30T13:39:08;25.00;67.50
10062;DHT22;5070;52.382;5.270;2022-07-30T13:41:39;25.00;67.50
10062;DHT22;5070;52.382;5.270;2022-07-30T13:44:09;25.10;67.30
10062;DHT22;5070;52.382;5.270;2022-07-30T13:46:37;25.10;67.30
10062;DHT22;5070;52.382;5.270;2022-07-30T13:49:07;25.10;67.30
10062;DHT22;5070;52.382;5.270;2022-07-30T13:51:36;25.10;67.20
10062;DHT22;5070;52.382;5.270;2022-07-30T13:54:05;25.10;66.70
10062;DHT22;5070;52.382;5.270;2022-07-30T13:56:36;25.10;66.70
10062;DHT22;5070;52.382;5.270;2022-07-30T13:59:06;25.10;66.80
10062;DHT22;5070;52.382;5.270;2022-07-30T14:01:37;25.10;66.60
10062;DHT22;5070;52.382;5.270;2022-07-30T14:04:05;25.10;66.60
10062;DHT22;5070;52.382;5.270;2022-07-30T14:06:34;25.10;66.90
10062;DHT22;5070;52.382;5.270;2022-07-30T14:09:02;25.10;66.80
10062;DHT22;5070;52.382;5.270;2022-07-30T14:11:30;25.10;66.90
10062;DHT22;5070;52.382;5.270;2022-07-30T14:13:58;25.20;67.10
10062;DHT22;5070;52.382;5.270;2022-07-30T14:16:26;25.20;67.40
10062;DHT22;5070;52.382;5.270;2022-07-30T14:19:15;25.20;67.20
10062;DHT22;5070;52.382;5.270;2022-07-30T14:21:50;25.20;67.40
10062;DHT22;5070;52.382;5.270;2022-07-30T14:24:19;25.20;67.50
10062;DHT22;5070;52.382;5.270;2022-07-30T14:26:48;25.30;67.60
10062;DHT22;5070;52.382;5.270;2022-07-30T14:29:25;25.20;67.30
10062;DHT22;5070;52.382;5.270;2022-07-30T14:31:53;25.30;67.50
10062;DHT22;5070;52.382;5.270;2022-07-30T14:34:23;25.30;67.60
10062;DHT22;5070;52.382;5.270;2022-07-30T14:36:51;25.30;67.60
10062;DHT22;5070;52.382;5.270;2022-07-30T14:39:19;25.30;67.70
10062;DHT22;5070;52.382;5.270;2022-07-30T14:41:47;25.30;67.50
10062;DHT22;5070;52.382;5.270;2022-07-30T14:44:21;25.30;67.60
10062;DHT22;5070;52.382;5.270;2022-07-30T14:46:49;25.40;67.70
10062;DHT22;5070;52.382;5.270;2022-07-30T14:49:19;25.30;67.60
10062;DHT22;5070;52.382;5.270;2022-07-30T14:51:50;25.30;67.60
10062;DHT22;5070;52.382;5.270;2022-07-30T14:54:18;25.40;67.90
10062;DHT22;5070;52.382;5.270;2022-07-30T14:56:45;25.40;68.00
10062;DHT22;5070;52.382;5.270;2022-07-30T14:59:14;25.40;67.90
10062;DHT22;5070;52.382;5.270;2022-07-30T15:01:42;25.40;67.90
10062;DHT22;5070;52.382;5.270;2022-07-30T15:04:12;25.40;67.80
10062;DHT22;5070;52.382;5.270;2022-07-30T15:06:40;25.40;67.60
10062;DHT22;5070;52.382;5.270;2022-07-30T15:09:10;25.40;67.60
10062;DHT22;5070;52.382;5.270;2022-07-30T15:11:38;25.50;68.00
10062;DHT22;5070;52.382;5.270;2022-07-30T15:14:26;25.50;68.10
10062;DHT22;5070;52.382;5.270;2022-07-30T15:16:54;25.50;68.30
10062;DHT22;5070;52.382;5.270;2022-07-30T15:19:29;25.50;68.40
10062;DHT22;5070;52.382;5.270;2022-07-30T15:21:57;25.50;68.30
10062;DHT22;5070;52.382;5.270;2022-07-30T15:24:30;25.50;68.30
10062;DHT22;5070;52.382;5.270;2022-07-30T15:26:58;25.60;68.10
10062;DHT22;5070;52.382;5.270;2022-07-30T15:29:34;25.50;67.90
10062;DHT22;5070;52.382;5.270;2022-07-30T15:32:02;25.60;68.00
10062;DHT22;5070;52.382;5.270;2022-07-30T15:34:32;25.60;68.20
10062;DHT22;5070;52.382;5.270;2022-07-30T15:37:00;25.60;68.30
10062;DHT22;5070;52.382;5.270;2022-07-30T15:39:32;25.60;68.20
10062;DHT22;5070;52.382;5.270;2022-07-30T15:42:04;25.60;68.00
10062;DHT22;5070;52.382;5.270;2022-07-30T15:44:33;25.60;68.00
10062;DHT22;5070;52.382;5.270;2022-07-30T15:47:01;25.70;68.10
10062;DHT22;5070;52.382;5.270;2022-07-30T15:49:29;25.60;68.20
10062;DHT22;5070;52.382;5.270;2022-07-30T15:51:58;25.70;68.30
10062;DHT22;5070;52.382;5.270;2022-07-30T15:54:31;25.70;68.40
10062;DHT22;5070;52.382;5.270;2022-07-30T15:56:59;25.70;68.50
10062;DHT22;5070;52.382;5.270;2022-07-30T15:59:28;25.70;68.40
10062;DHT22;5070;52.382;5.270;2022-07-30T16:01:56;25.80;68.50
10062;DHT22;5070;52.382;5.270;2022-07-30T16:04:24;25.80;68.50
10062;DHT22;5070;52.382;5.270;2022-07-30T16:06:58;25.80;69.30
10062;DHT22;5070;52.382;5.270;2022-07-30T16:09:26;25.80;68.80
10062;DHT22;5070;52.382;5.270;2022-07-30T16:11:55;25.80;68.80
10062;DHT22;5070;52.382;5.270;2022-07-30T16:14:24;25.80;68.80
10062;DHT22;5070;52.382;5.270;2022-07-30T16:16:52;25.80;68.80
10062;DHT22;5070;52.382;5.270;2022-07-30T16:19:20;25.80;68.50
10062;DHT22;5070;52.382;5.270;2022-07-30T16:21:51;25.80;68.30
10062;DHT22;5070;52.382;5.270;2022-07-30T16:24:19;25.80;68.40
10062;DHT22;5070;52.382;5.270;2022-07-30T16:26:47;25.90;68.50
10062;DHT22;5070;52.382;5.270;2022-07-30T16:29:17;25.80;68.50
10062;DHT22;5070;52.382;5.270;2022-07-30T16:31:45;25.90;68.60